Time;durP1;ratioP1;P1;durP2;ratioP2;P2;SDS_P1;SDS_P2;PMS_P1;PMS_P2;Temp;Humidity;BMP_temperature;BMP_pressure;BME280_temperature;BME280_humidity;BME280_pressure;Samples;Min_cycle;Max_cycle;Signal;HPM_P1;HPM_P2
2023/11/23 00:01:42;;;;;;;10.20;9.10;;;2.80;99.90;;;;;;5011450;28;20217;-89
2023/11/23 00:04:09;;;;;;;11.53;9.50;;;2.80;99.90;;;;;;5009811;28;20307;-88
2023/11/23 00:06:35;;;;;;;11.13;9.23;;;2.70;99.90;;;;;;5006875;28;20244;-89
2023/11/23 00:09:00;;;;;;;12.07;9.60;;;2.90;99.90;;;;;;5009155;28;20206;-88
2023/11/23 00:11:26;;;;;;;12.30;9.63;;;3.20;99.90;;;;;;5010515;28;20210;-89
2023/11/23 00:13:51;;;;;;;13.27;9.87;;;2.70;99.90;;;;;;5009548;28;20219;-88
2023/11/23 00:16:17;;;;;;;9.90;8.10;;;2.60;99.90;;;;;;5015527;28;20200;-89
2023/11/23 00:18:43;;;;;;;14.73;9.33;;;2.80;99.90;;;;;;5011131;28;20202;-88
2023/11/23 00:21:09;;;;;;;14.27;9.95;;;2.90;99.90;;;;;;5016772;28;20193;-89
2023/11/23 00:23:34;;;;;;;12.53;9.90;;;3.10;99.90;;;;;;5006310;28;20745;-89
2023/11/23 00:26:02;;;;;;;15.67;10.97;;;2.80;99.90;;;;;;5015594;28;20182;-89
2023/11/23 00:28:28;;;;;;;11.98;9.63;;;2.50;99.90;;;;;;5009456;28;21352;-89
2023/11/23 00:30:53;;;;;;;13.13;10.67;;;3.00;99.90;;;;;;5010045;28;20191;-88
2023/11/23 00:33:19;;;;;;;12.10;9.70;;;2.60;99.90;;;;;;5011066;28;20213;-89
2023/11/23 00:35:44;;;;;;;13.33;10.13;;;2.90;99.90;;;;;;5006856;28;20192;-89
2023/11/23 00:38:11;;;;;;;12.83;9.60;;;2.80;99.90;;;;;;5013025;28;20563;-89
2023/11/23 00:40:37;;;;;;;12.32;9.38;;;2.80;99.90;;;;;;5013604;28;20217;-89
2023/11/23 00:43:03;;;;;;;13.70;10.33;;;3.20;99.90;;;;;;5016340;28;20324;-89
2023/11/23 00:45:29;;;;;;;13.13;9.80;;;2.90;99.90;;;;;;5008986;28;20275;-88
2023/11/23 00:47:55;;;;;;;12.07;9.23;;;2.80;99.90;;;;;;5010752;28;20281;-89
2023/11/23 00:50:20;;;;;;;13.27;10.90;;;3.20;99.90;;;;;;5011677;28;20465;-89
2023/11/23 00:52:46;;;;;;;13.40;10.50;;;2.80;99.90;;;;;;5015552;28;20554;-89
2023/11/23 00:55:11;;;;;;;12.93;9.07;;;2.80;99.90;;;;;;5012687;28;20586;-89
2023/11/23 00:57:38;;;;;;;13.70;10.47;;;3.50;99.90;;;;;;5011344;28;20189;-89
2023/11/23 01:00:07;;;;;;;12.63;9.95;;;2.90;99.90;;;;;;5011958;28;20238;-89
2023/11/23 01:02:33;;;;;;;12.23;9.60;;;2.70;99.90;;;;;;5008278;28;20681;-89
2023/11/23 01:04:58;;;;;;;13.67;10.47;;;2.60;99.90;;;;;;5012564;28;20206;-89
2023/11/23 01:07:24;;;;;;;14.90;9.40;;;2.70;99.90;;;;;;5012814;28;20202;-89
2023/11/23 01:09:49;;;;;;;13.37;9.80;;;2.70;99.90;;;;;;5014422;28;20214;-89
2023/11/23 01:12:15;;;;;;;11.03;9.53;;;2.90;99.90;;;;;;5006974;28;20188;-89
2023/11/23 01:14:40;;;;;;;11.07;9.83;;;3.40;99.90;;;;;;5011050;28;20278;-89
2023/11/23 01:17:06;;;;;;;14.27;11.30;;;3.40;99.90;;;;;;5018010;28;20281;-89
2023/11/23 01:19:31;;;;;;;14.10;10.93;;;3.00;99.90;;;;;;5025199;28;20235;-89
2023/11/23 01:21:57;;;;;;;11.70;9.50;;;3.00;99.90;;;;;;5024309;28;20205;-89
2023/11/23 01:24:22;;;;;;;14.93;11.10;;;3.10;99.90;;;;;;5021809;28;20216;-89
2023/11/23 01:26:48;;;;;;;13.00;10.67;;;3.20;99.90;;;;;;5017443;28;20195;-88
2023/11/23 01:29:13;;;;;;;15.30;11.27;;;3.50;99.90;;;;;;5013999;28;20215;-89
2023/11/23 01:31:39;;;;;;;14.10;11.07;;;3.00;99.90;;;;;;5012509;28;20563;-88
2023/11/23 01:34:05;;;;;;;13.27;9.83;;;3.50;99.90;;;;;;5032344;28;20206;-89
2023/11/23 01:36:30;;;;;;;11.63;9.47;;;3.50;99.90;;;;;;5013066;28;20203;-89
2023/11/23 01:38:56;;;;;;;14.80;11.00;;;3.60;99.90;;;;;;5012001;28;20455;-89
2023/11/23 01:41:22;;;;;;;12.23;9.93;;;3.70;99.90;;;;;;5012863;28;20195;-88
2023/11/23 01:43:47;;;;;;;11.48;9.45;;;3.10;99.90;;;;;;5016337;28;20282;-89
2023/11/23 01:46:14;;;;;;;13.77;10.77;;;3.30;99.90;;;;;;5009746;28;20219;-89
2023/11/23 01:48:41;;;;;;;13.45;9.80;;;3.00;99.90;;;;;;5012722;28;20180;-89
2023/11/23 01:51:08;;;;;;;15.88;10.93;;;3.50;99.90;;;;;;5016472;28;20554;-89
2023/11/23 01:53:34;;;;;;;19.52;12.98;;;3.10;99.90;;;;;;5012804;28;20202;-89
2023/11/23 01:56:01;;;;;;;14.18;11.25;;;3.30;99.90;;;;;;5018428;28;20247;-89
2023/11/23 01:58:28;;;;;;;12.98;10.50;;;3.30;99.90;;;;;;5035553;28;20179;-89
2023/11/23 02:00:53;;;;;;;12.93;10.50;;;3.50;99.90;;;;;;5036739;28;20179;-89
2023/11/23 02:03:21;;;;;;;13.30;9.90;;;3.20;99.90;;;;;;5016984;28;20556;-89
2023/11/23 02:05:46;;;;;;;17.77;10.95;;;3.50;99.90;;;;;;5010293;28;20197;-89
2023/11/23 02:08:12;;;;;;;14.23;11.00;;;3.50;99.90;;;;;;5013771;28;20183;-88
2023/11/23 02:10:37;;;;;;;14.87;10.60;;;3.10;99.90;;;;;;5016952;28;20207;-89
2023/11/23 02:13:05;;;;;;;15.83;10.60;;;3.00;99.90;;;;;;5012539;28;20203;-89
2023/11/23 02:15:30;;;;;;;12.90;10.73;;;3.30;99.90;;;;;;5031982;28;20442;-89
2023/11/23 02:18:01;;;;;;;13.60;10.43;;;3.20;99.90;;;;;;5008987;28;20186;-89
2023/11/23 02:20:26;;;;;;;15.13;10.70;;;2.90;99.90;;;;;;5018477;28;20268;-89
2023/11/23 02:22:52;;;;;;;13.43;10.23;;;2.90;99.90;;;;;;5014846;28;20282;-89
2023/11/23 02:25:17;;;;;;;12.00;9.10;;;2.90;99.90;;;;;;5031812;28;20187;-89
2023/11/23 02:27:43;;;;;;;12.50;10.47;;;3.40;99.90;;;;;;5009678;28;20200;-89
2023/11/23 02:30:09;;;;;;;13.73;10.03;;;3.30;99.90;;;;;;5013377;28;20215;-89
2023/11/23 02:32:34;;;;;;;10.63;9.13;;;2.80;99.90;;;;;;5014465;28;20230;-89
2023/11/23 02:35:00;;;;;;;11.80;9.47;;;3.30;99.90;;;;;;5014179;28;20477;-89
2023/11/23 02:37:26;;;;;;;13.90;10.73;;;2.80;99.90;;;;;;5013098;28;20287;-89
2023/11/23 02:39:52;;;;;;;15.18;10.73;;;2.90;99.90;;;;;;5015804;28;20566;-89
2023/11/23 02:42:17;;;;;;;13.50;9.83;;;2.90;99.90;;;;;;5015001;28;20184;-88
2023/11/23 02:44:43;;;;;;;12.77;9.90;;;3.10;99.90;;;;;;5014851;28;20215;-89
2023/11/23 02:47:08;;;;;;;11.53;9.60;;;3.40;99.90;;;;;;5017004;28;20193;-89
2023/11/23 02:49:34;;;;;;;11.67;9.17;;;3.00;99.90;;;;;;5013413;28;20229;-89
2023/11/23 02:51:59;;;;;;;13.83;10.33;;;3.00;99.90;;;;;;5016589;28;20187;-89
2023/11/23 02:54:26;;;;;;;13.00;10.30;;;2.90;99.90;;;;;;5040165;28;20242;-89
2023/11/23 02:56:52;;;;;;;11.67;9.20;;;2.90;99.90;;;;;;5040697;28;20190;-89
2023/11/23 02:59:17;;;;;;;12.77;10.00;;;3.00;99.90;;;;;;5018285;28;20438;-89
2023/11/23 03:01:43;;;;;;;14.07;10.60;;;3.00;99.90;;;;;;5010342;28;20284;-89
2023/11/23 03:04:09;;;;;;;15.73;11.13;;;2.90;99.90;;;;;;5015339;28;20248;-89
2023/11/23 03:06:34;;;;;;;12.63;10.17;;;2.80;99.90;;;;;;5006841;28;20690;-88
2023/11/23 03:09:00;;;;;;;12.20;10.00;;;3.20;99.90;;;;;;5009927;28;20543;-89
2023/11/23 03:11:26;;;;;;;12.50;10.20;;;2.90;99.90;;;;;;5009634;28;20225;-89
2023/11/23 03:13:53;;;;;;;11.88;9.82;;;3.00;99.90;;;;;;5009485;28;20586;-89
2023/11/23 03:16:19;;;;;;;12.65;10.15;;;2.80;99.90;;;;;;5012929;28;20187;-89
2023/11/23 03:18:45;;;;;;;12.70;10.07;;;2.90;99.90;;;;;;5010444;28;20196;-89
2023/11/23 03:21:11;;;;;;;11.03;9.43;;;2.70;99.90;;;;;;5008465;28;20441;-89
2023/11/23 03:23:36;;;;;;;11.40;9.57;;;2.60;99.90;;;;;;5009612;28;20603;-89
2023/11/23 03:26:02;;;;;;;10.30;8.83;;;2.90;99.90;;;;;;5011291;28;20438;-89
2023/11/23 03:28:28;;;;;;;12.52;9.63;;;3.00;99.90;;;;;;5009236;28;20192;-88
2023/11/23 03:30:54;;;;;;;11.70;9.80;;;3.30;99.90;;;;;;5016395;28;20198;-89
2023/11/23 03:33:19;;;;;;;15.73;10.33;;;2.90;99.90;;;;;;5039290;28;20195;-89
2023/11/23 03:35:45;;;;;;;15.07;9.97;;;3.30;99.90;;;;;;5019876;28;20429;-89
2023/11/23 03:38:12;;;;;;;12.73;10.07;;;3.10;99.90;;;;;;5015744;28;20198;-90
2023/11/23 03:40:38;;;;;;;13.80;10.38;;;2.80;99.90;;;;;;5009246;28;20187;-90
2023/11/23 03:43:04;;;;;;;14.17;9.50;;;2.80;99.90;;;;;;5008408;28;20202;-90
2023/11/23 03:45:29;;;;;;;10.68;9.27;;;3.10;99.90;;;;;;5026710;28;20628;-90
2023/11/23 03:47:56;;;;;;;14.13;9.93;;;2.90;99.90;;;;;;5015914;28;20294;-90
2023/11/23 03:50:24;;;;;;;11.18;9.18;;;2.80;99.90;;;;;;5009730;28;20564;-89
2023/11/23 03:52:50;;;;;;;12.13;8.93;;;2.80;99.90;;;;;;5010229;28;20182;-90
2023/11/23 03:55:15;;;;;;;13.97;10.37;;;2.60;99.90;;;;;;5009492;28;20214;-90
2023/11/23 03:57:41;;;;;;;11.80;9.10;;;2.50;99.90;;;;;;5006367;28;20449;-90
2023/11/23 04:00:07;;;;;;;14.10;9.67;;;2.50;99.90;;;;;;5029117;28;20186;-90
2023/11/23 04:02:34;;;;;;;14.48;9.95;;;2.60;99.90;;;;;;5050350;28;20246;-90
2023/11/23 04:04:59;;;;;;;13.70;9.95;;;2.60;99.90;;;;;;5023190;28;20715;-90
2023/11/23 04:07:25;;;;;;;11.83;9.00;;;2.60;99.90;;;;;;5013614;28;20182;-90
2023/11/23 04:09:50;;;;;;;13.57;9.90;;;2.70;99.90;;;;;;5030242;28;20225;-90
2023/11/23 04:12:16;;;;;;;11.33;8.90;;;2.60;99.90;;;;;;5052112;28;20220;-90
2023/11/23 04:14:41;;;;;;;10.40;8.80;;;2.60;99.90;;;;;;5032525;28;20569;-90
2023/11/23 04:17:07;;;;;;;12.70;9.50;;;2.80;99.90;;;;;;5035476;28;20225;-90
2023/11/23 04:19:33;;;;;;;12.93;9.60;;;3.20;99.90;;;;;;5047442;28;20247;-90
2023/11/23 04:22:03;;;;;;;11.33;8.20;;;3.10;99.90;;;;;;5036165;28;20182;-90
2023/11/23 04:24:28;;;;;;;12.55;9.20;;;3.00;99.90;;;;;;5019444;28;20281;-90
2023/11/23 04:26:54;;;;;;;13.37;10.00;;;2.60;99.90;;;;;;5013717;28;20186;-90
2023/11/23 04:29:19;;;;;;;11.77;9.27;;;2.70;99.90;;;;;;5010864;28;20829;-89
2023/11/23 04:31:45;;;;;;;12.97;9.93;;;2.50;99.90;;;;;;5015032;28;20611;-90
2023/11/23 04:34:11;;;;;;;12.18;9.20;;;2.40;99.90;;;;;;5012605;28;20259;-90
2023/11/23 04:36:37;;;;;;;11.53;8.47;;;2.70;99.90;;;;;;5008759;28;20197;-90
2023/11/23 04:39:04;;;;;;;12.60;9.90;;;2.70;99.90;;;;;;5010846;28;20441;-89
2023/11/23 04:41:29;;;;;;;11.13;8.05;;;2.70;99.90;;;;;;5012184;28;20182;-90
2023/11/23 04:43:55;;;;;;;11.43;8.80;;;2.90;99.90;;;;;;5010743;28;20213;-90
2023/11/23 04:46:20;;;;;;;12.93;10.23;;;2.50;99.90;;;;;;5011785;28;20547;-90
2023/11/23 04:48:47;;;;;;;11.83;8.97;;;2.60;99.90;;;;;;5012697;28;20221;-90
2023/11/23 04:51:15;;;;;;;11.63;9.10;;;2.50;99.90;;;;;;5024858;28;20213;-90
2023/11/23 04:53:40;;;;;;;11.75;8.70;;;3.00;99.90;;;;;;5012135;28;20209;-90
2023/11/23 04:56:06;;;;;;;13.43;9.10;;;2.60;99.90;;;;;;5013018;28;20187;-90
2023/11/23 04:58:32;;;;;;;10.30;8.17;;;2.50;99.90;;;;;;5012641;28;20954;-89
2023/11/23 05:01:00;;;;;;;13.65;8.82;;;2.40;99.90;;;;;;5038601;28;21394;-90
2023/11/23 05:03:28;;;;;;;11.77;8.50;;;2.70;99.90;;;;;;5025489;28;20210;-90
2023/11/23 05:05:54;;;;;;;12.07;8.85;;;2.50;99.90;;;;;;5013798;28;20587;-90
2023/11/23 05:08:20;;;;;;;12.55;8.65;;;2.50;99.90;;;;;;5011934;28;20187;-89
2023/11/23 05:10:46;;;;;;;13.03;9.00;;;2.30;99.90;;;;;;5014917;28;20213;-90
2023/11/23 05:13:12;;;;;;;10.73;8.27;;;2.50;99.90;;;;;;5012876;28;20671;-90
2023/11/23 05:15:38;;;;;;;13.10;8.73;;;2.50;99.90;;;;;;5013722;28;20194;-90
2023/11/23 05:18:04;;;;;;;12.17;9.60;;;2.20;99.90;;;;;;5013293;28;20673;-90
2023/11/23 05:20:29;;;;;;;13.17;8.87;;;2.60;99.90;;;;;;5013108;28;20831;-90
2023/11/23 05:22:55;;;;;;;11.40;8.83;;;2.30;99.90;;;;;;5027356;28;20249;-90
2023/11/23 05:25:21;;;;;;;13.40;9.10;;;2.50;99.90;;;;;;5010786;28;20188;-90
2023/11/23 05:27:46;;;;;;;10.60;7.80;;;2.60;99.90;;;;;;5033782;28;20197;-90
2023/11/23 05:30:12;;;;;;;12.00;8.43;;;3.00;99.90;;;;;;5006023;28;20632;-90
2023/11/23 05:32:37;;;;;;;12.77;8.77;;;2.40;99.90;;;;;;5018136;28;20193;-90
2023/11/23 05:35:05;;;;;;;12.03;8.23;;;2.50;99.90;;;;;;5010624;28;20990;-90
2023/11/23 05:37:31;;;;;;;11.98;8.75;;;2.40;99.90;;;;;;5014949;28;20199;-89
2023/11/23 05:39:56;;;;;;;13.50;8.77;;;2.90;99.90;;;;;;5012343;28;20191;-90
2023/11/23 05:42:22;;;;;;;11.23;8.70;;;2.00;99.90;;;;;;5012124;28;20190;-90
2023/11/23 05:44:53;;;;;;;15.33;8.27;;;;;;;;;;5015997;28;20205;-92
2023/11/23 06:05:45;;;;;;;12.32;8.68;;;2.30;99.90;;;;;;5014711;28;20637;-91
2023/11/23 06:08:11;;;;;;;10.23;7.73;;;2.40;99.90;;;;;;5001942;28;20187;-91
2023/11/23 06:10:37;;;;;;;14.20;9.10;;;2.70;99.90;;;;;;5001850;28;20269;-91
2023/11/23 06:13:02;;;;;;;10.38;7.65;;;2.20;99.90;;;;;;5005602;28;20179;-91
2023/11/23 06:15:29;;;;;;;13.00;8.83;;;3.90;99.90;;;;;;5023167;28;20182;-92
2023/11/23 06:17:55;;;;;;;11.65;8.20;;;2.30;99.90;;;;;;5023671;28;20242;-92
2023/11/23 06:20:21;;;;;;;16.43;9.00;;;2.60;99.90;;;;;;5021321;28;20191;-92
2023/11/23 06:22:48;;;;;;;11.93;8.43;;;2.30;99.90;;;;;;5016467;28;20259;-92
2023/11/23 06:25:14;;;;;;;9.65;7.47;;;2.70;99.90;;;;;;5018584;28;20183;-91
2023/11/23 06:27:39;;;;;;;16.80;7.70;;;2.20;99.90;;;;;;5025175;28;20226;-93
2023/11/23 06:30:05;;;;;;;11.00;7.70;;;3.60;99.90;;;;;;5027201;28;20469;-91
2023/11/23 06:32:31;;;;;;;13.45;7.25;;;2.20;99.90;;;;;;5021283;28;20195;-92
2023/11/23 06:34:57;;;;;;;10.03;7.13;;;2.20;99.90;;;;;;5026671;28;20204;-90
2023/11/23 06:37:23;;;;;;;9.10;7.63;;;2.50;99.90;;;;;;5021851;28;20316;-88
2023/11/23 06:39:48;;;;;;;11.30;8.70;;;2.50;99.90;;;;;;5019893;28;20222;-87
2023/11/23 06:42:14;;;;;;;9.37;7.00;;;2.50;99.90;;;;;;5016653;28;20226;-88
2023/11/23 06:45:08;;;;;;;8.57;7.00;;;3.10;99.90;;;;;;4996744;28;22558;-88
2023/11/23 06:47:33;;;;;;;9.77;7.82;;;2.60;99.90;;;;;;5013828;28;20259;-89
2023/11/23 06:50:00;;;;;;;10.90;7.60;;;2.80;99.90;;;;;;5014591;28;20748;-88
2023/11/23 06:52:26;;;;;;;9.57;7.43;;;2.80;99.90;;;;;;5017070;28;20220;-88
2023/11/23 06:54:52;;;;;;;8.50;7.13;;;2.70;99.90;;;;;;5016653;28;20297;-88
2023/11/23 06:57:17;;;;;;;10.60;7.57;;;2.90;99.90;;;;;;5016722;28;20728;-88
2023/11/23 06:59:44;;;;;;;10.13;7.20;;;3.30;99.90;;;;;;5015092;28;20274;-88
2023/11/23 07:02:09;;;;;;;8.45;6.50;;;2.90;99.90;;;;;;5019216;28;20186;-88
2023/11/23 07:04:35;;;;;;;10.00;7.17;;;2.90;99.90;;;;;;5015113;28;20218;-88
2023/11/23 07:07:02;;;;;;;9.40;6.67;;;3.30;99.90;;;;;;5014422;28;20186;-88
2023/11/23 07:09:27;;;;;;;8.48;5.85;;;3.00;99.90;;;;;;5014229;28;21377;-88
2023/11/23 07:11:54;;;;;;;11.63;6.10;;;3.00;99.90;;;;;;5023384;28;20187;-89
2023/11/23 07:14:21;;;;;;;8.48;6.70;;;3.50;99.90;;;;;;5015959;28;20202;-88
2023/11/23 07:16:51;;;;;;;8.30;6.13;;;3.40;99.90;;;;;;5010395;28;20210;-88
2023/11/23 07:19:17;;;;;;;8.90;5.63;;;3.00;99.90;;;;;;5036671;28;20213;-88
2023/11/23 07:21:43;;;;;;;10.02;5.97;;;3.00;99.90;;;;;;5021535;28;20192;-88
2023/11/23 07:24:09;;;;;;;8.40;5.73;;;3.20;99.90;;;;;;5013643;28;20203;-88
2023/11/23 07:26:34;;;;;;;8.00;5.37;;;3.10;99.90;;;;;;5010578;28;20507;-89
2023/11/23 07:29:00;;;;;;;7.27;5.50;;;3.00;99.90;;;;;;5013111;28;20302;-89
2023/11/23 07:31:25;;;;;;;6.40;5.10;;;3.60;99.90;;;;;;5013970;28;20187;-89
2023/11/23 07:33:51;;;;;;;6.67;5.83;;;3.50;99.90;;;;;;5010307;28;20199;-88
2023/11/23 07:36:17;;;;;;;7.13;5.77;;;3.10;99.90;;;;;;5012240;28;20253;-89
2023/11/23 07:38:44;;;;;;;5.77;5.00;;;3.10;99.90;;;;;;5011303;28;20414;-88
2023/11/23 07:41:11;;;;;;;5.78;5.15;;;3.70;99.90;;;;;;5010584;28;20470;-88
2023/11/23 07:43:37;;;;;;;6.75;5.70;;;3.30;99.90;;;;;;5013697;28;20240;-89
2023/11/23 07:46:02;;;;;;;11.23;6.50;;;3.50;99.90;;;;;;5014605;28;20182;-88
2023/11/23 07:48:29;;;;;;;10.40;5.90;;;3.50;99.90;;;;;;5014285;28;20970;-89
2023/11/23 07:50:55;;;;;;;8.82;5.32;;;3.90;99.90;;;;;;5034032;28;20202;-89
2023/11/23 07:53:20;;;;;;;12.83;7.20;;;3.70;99.90;;;;;;5036108;28;20243;-89
2023/11/23 07:55:46;;;;;;;25.70;9.90;;;3.80;99.90;;;;;;5054597;28;20220;-89
2023/11/23 07:58:12;;;;;;;19.23;8.20;;;3.90;99.90;;;;;;5023809;28;20192;-89
2023/11/23 08:00:38;;;;;;;9.87;6.50;;;4.30;99.90;;;;;;5012331;28;20569;-89
2023/11/23 08:03:05;;;;;;;9.70;6.63;;;3.90;99.90;;;;;;5013854;28;20211;-90
2023/11/23 08:05:30;;;;;;;9.18;5.82;;;3.80;99.90;;;;;;5012996;28;20230;-89
2023/11/23 08:07:56;;;;;;;6.30;4.47;;;3.90;99.90;;;;;;5015764;28;20187;-89
2023/11/23 08:10:22;;;;;;;8.10;5.40;;;4.40;99.90;;;;;;5027397;28;20384;-89
2023/11/23 08:12:47;;;;;;;8.20;5.00;;;4.10;99.90;;;;;;5014991;28;20192;-89
2023/11/23 08:15:13;;;;;;;7.50;5.10;;;4.20;99.90;;;;;;5012713;28;20446;-89
2023/11/23 08:17:38;;;;;;;7.30;5.23;;;4.30;99.90;;;;;;5010627;28;20260;-89
2023/11/23 08:20:08;;;;;;;9.47;5.10;;;4.30;99.90;;;;;;5015314;28;20187;-89
2023/11/23 08:22:35;;;;;;;4.88;4.38;;;4.60;99.90;;;;;;5013601;28;20641;-89
2023/11/23 08:25:00;;;;;;;6.65;4.38;;;5.00;99.90;;;;;;5012176;28;20220;-89
2023/11/23 08:27:26;;;;;;;7.50;4.40;;;4.70;99.90;;;;;;5015233;28;20279;-89
2023/11/23 08:29:52;;;;;;;5.97;4.80;;;4.90;99.90;;;;;;5018650;28;20270;-88
2023/11/23 08:32:18;;;;;;;4.50;4.00;;;5.40;99.90;;;;;;5037352;28;20257;-88
2023/11/23 08:34:44;;;;;;;22.92;7.43;;;4.80;99.90;;;;;;5037264;28;20464;-88
2023/11/23 08:37:11;;;;;;;4.55;4.07;;;5.20;99.90;;;;;;5034633;28;20330;-89
2023/11/23 08:39:37;;;;;;;10.23;4.63;;;5.40;99.90;;;;;;5038292;28;20438;-88
2023/11/23 08:42:03;;;;;;;5.93;4.20;;;6.00;99.90;;;;;;5038273;28;20218;-89
2023/11/23 08:44:28;;;;;;;4.10;3.43;;;5.80;99.90;;;;;;5037442;28;20236;-88
2023/11/23 08:46:54;;;;;;;3.90;3.40;;;6.40;99.90;;;;;;5036735;28;20428;-88
2023/11/23 08:49:19;;;;;;;8.13;4.83;;;6.10;99.90;;;;;;5038099;28;20229;-88
2023/11/23 08:51:45;;;;;;;4.30;3.23;;;6.50;99.90;;;;;;5034064;28;20213;-88
2023/11/23 08:54:11;;;;;;;5.80;4.00;;;6.40;99.90;;;;;;5037319;28;20224;-88
2023/11/23 08:56:37;;;;;;;4.32;3.42;;;6.00;99.90;;;;;;5052935;28;20182;-88
2023/11/23 08:59:03;;;;;;;4.40;3.63;;;6.50;99.90;;;;;;5038058;28;20186;-88
2023/11/23 09:01:29;;;;;;;5.05;3.28;;;6.40;99.90;;;;;;5032311;28;20186;-88
2023/11/23 09:03:55;;;;;;;5.10;3.50;;;6.60;99.90;;;;;;5032811;28;20236;-88
2023/11/23 09:06:22;;;;;;;4.35;3.13;;;6.30;99.90;;;;;;5019052;28;20194;-88
2023/11/23 09:08:48;;;;;;;4.47;3.63;;;6.30;99.90;;;;;;5020688;28;20285;-88
2023/11/23 09:11:14;;;;;;;5.13;3.75;;;6.50;99.90;;;;;;5021881;28;20202;-88
2023/11/23 09:13:40;;;;;;;4.50;3.43;;;6.40;99.90;;;;;;5047366;28;20238;-88
2023/11/23 09:16:07;;;;;;;3.83;3.53;;;6.90;99.90;;;;;;5021933;28;20422;-88
2023/11/23 09:18:33;;;;;;;4.55;3.90;;;6.40;99.90;;;;;;5004437;28;20278;-88
2023/11/23 09:20:59;;;;;;;4.43;3.53;;;6.60;99.90;;;;;;5022469;28;20190;-88
2023/11/23 09:23:26;;;;;;;4.22;3.83;;;6.70;99.90;;;;;;5038230;28;20240;-88
2023/11/23 09:25:51;;;;;;;5.22;3.80;;;7.00;99.90;;;;;;5041105;28;20190;-88
2023/11/23 09:28:17;;;;;;;4.27;3.23;;;6.70;99.90;;;;;;5029087;28;20182;-88
2023/11/23 09:30:42;;;;;;;5.93;3.60;;;6.70;99.90;;;;;;5001562;28;20222;-88
2023/11/23 09:33:09;;;;;;;4.80;3.60;;;6.70;99.90;;;;;;5024211;28;20190;-88
2023/11/23 09:35:38;;;;;;;4.60;3.70;;;6.90;99.90;;;;;;5036031;28;20210;-88
2023/11/23 09:38:07;;;;;;;3.90;3.30;;;6.90;99.90;;;;;;5026562;28;20182;-88
2023/11/23 09:40:33;;;;;;;3.95;3.55;;;6.90;99.90;;;;;;5030246;28;20198;-89
2023/11/23 09:42:58;;;;;;;4.40;3.43;;;7.10;99.90;;;;;;5025470;28;20194;-88
2023/11/23 09:45:24;;;;;;;4.23;3.43;;;7.30;99.90;;;;;;5014317;28;20807;-89
2023/11/23 09:47:51;;;;;;;3.30;3.00;;;7.30;99.90;;;;;;5014567;28;20205;-88
2023/11/23 09:50:20;;;;;;;4.60;3.63;;;8.00;99.90;;;;;;5017599;28;20641;-88
2023/11/23 09:52:46;;;;;;;3.30;3.00;;;7.80;99.90;;;;;;5018180;28;20182;-89
2023/11/23 09:55:16;;;;;;;3.70;3.13;;;7.60;99.90;;;;;;5017212;28;20190;-88
2023/11/23 09:57:45;;;;;;;3.83;3.00;;;8.20;99.90;;;;;;5016973;28;20520;-89
2023/11/23 10:00:14;;;;;;;3.47;2.95;;;7.60;99.90;;;;;;5034105;28;20615;-89
2023/11/23 10:02:41;;;;;;;3.30;3.00;;;7.80;99.90;;;;;;5015986;28;20182;-89
2023/11/23 10:05:09;;;;;;;3.60;2.83;;;7.90;99.90;;;;;;5025115;28;20224;-89
2023/11/23 10:07:35;;;;;;;3.35;3.05;;;7.90;99.90;;;;;;5032850;28;20209;-89
2023/11/23 10:10:04;;;;;;;2.50;2.30;;;8.30;99.90;;;;;;4986366;28;20214;-89
2023/11/23 10:12:31;;;;;;;3.03;2.75;;;8.10;99.90;;;;;;5015195;28;20190;-89
2023/11/23 10:14:57;;;;;;;3.63;2.95;;;8.50;99.90;;;;;;5017465;28;20210;-89
2023/11/23 10:17:22;;;;;;;2.87;2.30;;;8.10;99.90;;;;;;5019560;28;20175;-89
2023/11/23 10:19:49;;;;;;;2.43;2.23;;;8.10;99.90;;;;;;5016913;28;20217;-89
2023/11/23 10:22:15;;;;;;;3.22;2.92;;;8.50;99.90;;;;;;5011968;28;20190;-89
2023/11/23 10:24:48;;;;;;;3.85;2.75;;;8.10;99.90;;;;;;5021574;28;20206;-89
2023/11/23 10:27:16;;;;;;;3.30;3.00;;;8.60;99.90;;;;;;5013656;28;20284;-89
2023/11/23 10:29:42;;;;;;;3.70;2.70;;;8.20;99.90;;;;;;5032418;28;20257;-89
2023/11/23 10:32:09;;;;;;;4.50;3.00;;;8.20;99.90;;;;;;5016365;28;20182;-89
2023/11/23 10:34:38;;;;;;;4.10;3.17;;;8.10;99.90;;;;;;5014963;28;20204;-89
2023/11/23 10:37:05;;;;;;;3.42;2.95;;;8.20;99.90;;;;;;5000655;28;20178;-89
2023/11/23 10:39:31;;;;;;;3.83;2.90;;;8.20;99.90;;;;;;5014789;28;20190;-89
2023/11/23 10:41:59;;;;;;;5.93;3.55;;;8.10;99.90;;;;;;5016280;28;20663;-90
2023/11/23 10:44:28;;;;;;;4.38;3.08;;;8.50;99.90;;;;;;5016164;28;20248;-89
2023/11/23 10:46:58;;;;;;;2.53;2.33;;;8.20;99.90;;;;;;5022497;28;20286;-88
2023/11/23 10:49:26;;;;;;;4.20;2.67;;;8.10;99.90;;;;;;5030326;28;20284;-88
2023/11/23 10:51:53;;;;;;;2.45;2.20;;;8.60;99.90;;;;;;5023537;28;20643;-88
2023/11/23 10:54:19;;;;;;;2.67;2.47;;;8.10;99.90;;;;;;5016756;28;20278;-88
2023/11/23 10:56:46;;;;;;;2.63;2.40;;;8.30;99.90;;;;;;5017281;28;20214;-88
2023/11/23 10:59:20;;;;;;;3.20;2.90;;;8.20;99.90;;;;;;5024516;28;20187;-88
2023/11/23 11:01:47;;;;;;;3.58;2.45;;;8.50;99.90;;;;;;5016160;28;20190;-88
2023/11/23 11:04:13;;;;;;;2.85;2.50;;;8.00;99.90;;;;;;5014292;28;20229;-89
2023/11/23 11:06:44;;;;;;;3.10;2.80;;;7.90;99.90;;;;;;5014192;28;20250;-89
2023/11/23 11:09:14;;;;;;;4.07;3.25;;;8.20;99.90;;;;;;5017809;28;20484;-88
2023/11/23 11:11:43;;;;;;;2.72;2.53;;;8.30;99.90;;;;;;5014173;28;20191;-88
2023/11/23 11:14:13;;;;;;;3.40;2.88;;;8.10;99.90;;;;;;5011291;28;20281;-88
2023/11/23 11:16:39;;;;;;;2.85;2.53;;;8.60;99.90;;;;;;5017097;28;20183;-88
2023/11/23 11:19:11;;;;;;;3.93;2.77;;;8.50;99.90;;;;;;5014438;28;20178;-89
2023/11/23 11:21:43;;;;;;;3.00;2.80;;;8.60;99.90;;;;;;5013421;28;20929;-89
2023/11/23 11:24:19;;;;;;;3.17;2.60;;;8.20;99.90;;;;;;5012041;28;20210;-88
2023/11/23 11:26:46;;;;;;;5.35;2.53;;;8.60;99.90;;;;;;5016734;28;20598;-89
2023/11/23 11:29:13;;;;;;;3.10;2.80;;;9.00;99.90;;;;;;5016525;28;20236;-89
2023/11/23 11:31:40;;;;;;;3.90;3.60;;;8.30;99.90;;;;;;5015648;28;20194;-89
2023/11/23 11:34:17;;;;;;;3.25;2.95;;;8.90;99.90;;;;;;5014492;28;20206;-88
2023/11/23 11:36:43;;;;;;;3.40;3.10;;;9.10;99.90;;;;;;5015854;28;20193;-91
2023/11/23 11:39:12;;;;;;;3.75;2.75;;;8.80;99.90;;;;;;5014031;28;20174;-88
2023/11/23 11:41:38;;;;;;;4.97;3.50;;;8.80;99.90;;;;;;5013315;28;20187;-88
2023/11/23 11:44:11;;;;;;;3.73;3.17;;;9.10;99.90;;;;;;5027506;28;20225;-88
2023/11/23 11:46:37;;;;;;;2.85;2.60;;;9.30;99.90;;;;;;4999172;28;20197;-89
2023/11/23 11:49:03;;;;;;;4.35;3.20;;;9.20;99.90;;;;;;5015192;28;20194;-88
2023/11/23 11:51:31;;;;;;;4.03;2.70;;;9.30;99.90;;;;;;5016788;28;20190;-88
2023/11/23 11:54:00;;;;;;;2.92;2.63;;;8.60;99.90;;;;;;5013335;28;20993;-89
2023/11/23 11:56:26;;;;;;;2.80;2.60;;;9.30;99.90;;;;;;5017637;28;20190;-89
2023/11/23 11:58:52;;;;;;;3.10;2.55;;;9.30;99.90;;;;;;5014527;28;20206;-88
2023/11/23 12:01:19;;;;;;;2.57;2.37;;;9.20;99.90;;;;;;5033413;28;20187;-88
2023/11/23 12:03:49;;;;;;;4.75;2.53;;;9.50;99.90;;;;;;5024380;28;20481;-89
2023/11/23 12:06:17;;;;;;;2.50;2.30;;;9.70;99.90;;;;;;5032593;28;20198;-89
2023/11/23 12:08:45;;;;;;;2.90;2.70;;;9.90;99.90;;;;;;5019172;28;20186;-88
2023/11/23 12:11:24;;;;;;;2.40;2.20;;;9.40;99.90;;;;;;5015420;28;20192;-88
2023/11/23 12:13:53;;;;;;;5.65;2.85;;;9.70;99.90;;;;;;5016632;28;20213;-88
2023/11/23 12:16:20;;;;;;;4.15;2.90;;;10.00;99.90;;;;;;5018433;28;20179;-88
2023/11/23 12:18:45;;;;;;;2.50;2.10;;;9.30;99.90;;;;;;5020595;28;20189;-90
2023/11/23 12:21:14;;;;;;;3.10;2.30;;;9.90;99.90;;;;;;5034452;28;20199;-90
2023/11/23 12:23:41;;;;;;;3.35;2.45;;;9.80;99.90;;;;;;5030720;28;20279;-89
2023/11/23 12:26:08;;;;;;;3.10;2.80;;;9.50;99.90;;;;;;5039588;28;20175;-88
2023/11/23 12:28:34;;;;;;;3.85;2.50;;;9.90;99.90;;;;;;5052865;28;20250;-88
2023/11/23 12:31:00;;;;;;;5.32;2.00;;;9.90;99.90;;;;;;5036872;28;20194;-88
2023/11/23 12:33:25;;;;;;;2.53;2.20;;;9.80;99.90;;;;;;5034691;28;20202;-88
2023/11/23 12:35:51;;;;;;;2.67;2.43;;;9.80;99.90;;;;;;5025078;28;20234;-88
2023/11/23 12:38:16;;;;;;;2.97;2.70;;;10.00;99.90;;;;;;5021227;28;20729;-89
2023/11/23 12:40:43;;;;;;;3.30;2.63;;;10.20;99.90;;;;;;5015619;28;20291;-91
2023/11/23 12:43:10;;;;;;;3.38;3.08;;;10.30;99.90;;;;;;5014515;28;20208;-88
2023/11/23 12:45:36;;;;;;;5.97;5.03;;;10.00;99.90;;;;;;5017013;28;20247;-88
2023/11/23 12:48:03;;;;;;;2.30;2.10;;;10.20;99.90;;;;;;5016946;28;20270;-88
2023/11/23 12:50:29;;;;;;;2.40;2.20;;;10.20;99.90;;;;;;5012192;28;20228;-89
2023/11/23 12:52:54;;;;;;;13.00;3.23;;;10.50;99.90;;;;;;5018341;28;20263;-89
2023/11/23 12:55:20;;;;;;;2.80;2.03;;;10.80;99.90;;;;;;5012193;28;20193;-90
2023/11/23 12:57:46;;;;;;;3.40;2.30;;;10.70;99.90;;;;;;5013226;28;20181;-89
2023/11/23 13:00:15;;;;;;;2.20;2.00;;;10.90;99.90;;;;;;5014096;28;20186;-88
2023/11/23 13:02:44;;;;;;;3.67;2.58;;;10.40;99.90;;;;;;5012286;28;20454;-89
2023/11/23 13:05:12;;;;;;;2.58;2.00;;;10.50;99.90;;;;;;5012761;28;20207;-89